Terminal Aerodrome Forecast
Issued by NWS

Home | Current Version | Previous Version | Graphics & Text | Print | Product List | Glossary On
Versions: 1 2 3 4 5 6 7 8 9 10 11 12
000
FTUS43 KMPX 152324
TAFRWF
TAF
KRWF 152324Z 1600/1624 33016G21KT P6SM VCSH OVC020
      TEMPO 1600/1602 2SM -SHSN BKN015
     FM160200 32012G20KT P6SM FEW020 SCT100
     FM160800 30009KT P6SM SKC
     FM161400 25009KT P6SM SKC
     FM161900 22012G17KT P6SM SKC=

USA.gov is the U.S. government's official web portal to all federal, state and local government web resources and services.